Time;durP1;ratioP1;P1;durP2;ratioP2;P2;SDS_P1;SDS_P2;PMS_P1;PMS_P2;Temp;Humidity;BMP_temperature;BMP_pressure;BME280_temperature;BME280_humidity;BME280_pressure;Samples;Min_cycle;Max_cycle;Signal;HPM_P1;HPM_P2
2022/08/17 00:00:17;;;;;;;16.00;11.70;;;;;;;23.76;69.38;99816.90;104073;1284;139811;-78
2022/08/17 00:03:16;;;;;;;14.30;11.20;;;;;;;23.79;69.36;99813.17;104226;1284;99877;-79
2022/08/17 00:05:51;;;;;;;15.20;11.70;;;;;;;23.74;69.46;99812.38;103978;1284;139147;-79
2022/08/17 00:08:22;;;;;;;14.00;11.10;;;;;;;23.73;69.49;99816.26;104209;1284;95350;-78
2022/08/17 00:10:52;;;;;;;13.90;11.10;;;;;;;23.71;69.47;99814.05;104320;1284;95703;-79
2022/08/17 00:13:37;;;;;;;14.80;11.40;;;;;;;23.68;69.72;99811.81;104218;1284;140420;-80
2022/08/17 00:16:10;;;;;;;14.20;10.90;;;;;;;23.64;69.48;99811.64;104262;1284;99872;-80
2022/08/17 00:18:39;;;;;;;15.40;11.20;;;;;;;23.59;69.89;99815.20;104081;1282;140377;-82
2022/08/17 00:21:27;;;;;;;14.60;11.70;;;;;;;23.60;69.55;99819.37;104166;1284;95301;-78
2022/08/17 00:24:17;;;;;;;14.30;12.00;;;;;;;23.64;69.59;99819.27;104397;1284;138961;-79
2022/08/17 00:26:46;;;;;;;15.20;12.20;;;;;;;23.63;69.48;99816.02;104908;1284;108817;-79
2022/08/17 00:29:13;;;;;;;15.60;11.60;;;;;;;23.64;69.42;99813.64;104261;1284;100055;-78
2022/08/17 00:31:48;;;;;;;16.10;11.70;;;;;;;23.58;69.64;99815.85;104649;1284;140465;-77
2022/08/17 00:34:16;;;;;;;15.10;12.00;;;;;;;23.52;69.86;99817.77;104510;1284;95671;-79
2022/08/17 00:36:44;;;;;;;14.40;12.30;;;;;;;23.53;69.83;99815.48;104165;1284;139902;-79
2022/08/17 00:39:12;;;;;;;14.80;12.20;;;;;;;23.54;69.47;99811.97;104234;1284;108698;-77
2022/08/17 00:41:40;;;;;;;14.70;11.80;;;;;;;23.56;69.51;99815.79;104080;1284;141292;-79
2022/08/17 00:44:10;;;;;;;16.50;12.30;;;;;;;23.55;69.56;99820.36;104176;1284;105928;-80
2022/08/17 00:46:42;;;;;;;15.00;12.90;;;;;;;23.57;69.49;99824.01;104287;1284;95693;-79
2022/08/17 00:49:12;;;;;;;15.90;13.00;;;;;;;23.58;69.48;99823.60;104051;1284;138632;-79
2022/08/17 00:51:46;;;;;;;16.80;12.60;;;;;;;23.57;69.26;99822.57;104592;1283;110902;-78
2022/08/17 00:54:28;;;;;;;16.30;12.30;;;;;;;23.58;69.27;99820.11;104123;1284;141051;-78
2022/08/17 00:57:14;;;;;;;14.10;11.70;;;;;;;23.57;69.33;99820.39;104115;1284;107964;-78
2022/08/17 00:59:49;;;;;;;15.50;12.60;;;;;;;23.53;69.61;99826.16;104150;1284;139608;-79
2022/08/17 01:02:34;;;;;;;15.30;13.10;;;;;;;23.47;69.70;99826.88;104458;1284;95254;-78
2022/08/17 01:05:16;;;;;;;15.00;12.50;;;;;;;23.38;70.06;99823.17;104500;1284;108722;-79
2022/08/17 01:07:48;;;;;;;14.70;12.20;;;;;;;23.36;69.92;99823.70;104136;1284;140663;-78
2022/08/17 01:10:21;;;;;;;16.20;12.70;;;;;;;23.41;69.78;99821.85;104162;1284;108276;-79
2022/08/17 01:13:10;;;;;;;15.00;12.40;;;;;;;23.41;70.02;99820.55;104163;1284;138369;-79
2022/08/17 01:15:45;;;;;;;14.90;11.90;;;;;;;23.39;69.90;99821.11;104196;1284;95730;-77
2022/08/17 01:18:15;;;;;;;14.80;12.00;;;;;;;23.32;70.10;99820.64;104055;1284;139435;-78
2022/08/17 01:20:47;;;;;;;13.40;11.00;;;;;;;23.23;70.29;99825.27;104183;1284;98375;-80
2022/08/17 01:23:18;;;;;;;15.20;12.00;;;;;;;23.16;70.54;99824.20;104150;1284;108362;-78
2022/08/17 01:25:53;;;;;;;15.00;12.30;;;;;;;23.14;70.60;99824.73;104177;1283;140022;-81
2022/08/17 01:28:24;;;;;;;16.90;12.60;;;;;;;23.15;70.36;99818.29;104173;1284;95899;-78
2022/08/17 01:31:13;;;;;;;14.60;11.60;;;;;;;23.12;70.80;99822.56;104055;1284;141605;-78
2022/08/17 01:33:41;;;;;;;16.40;12.60;;;;;;;23.14;70.59;99824.01;104208;1284;99932;-79
2022/08/17 01:36:09;;;;;;;14.90;11.90;;;;;;;23.16;70.46;99825.30;104033;1284;140563;-79
2022/08/17 01:38:38;;;;;;;15.00;12.60;;;;;;;23.13;70.47;99831.70;104192;1283;95963;-80
2022/08/17 01:41:11;;;;;;;17.30;13.20;;;;;;;23.10;70.57;99825.30;104248;1284;95204;-78
2022/08/17 01:43:50;;;;;;;14.50;11.70;;;;;;;23.08;70.64;99827.04;104158;1284;139172;-80
2022/08/17 01:46:26;;;;;;;17.00;12.80;;;;;;;23.11;70.49;99829.14;104151;1284;100451;-81
2022/08/17 01:48:56;;;;;;;15.30;12.80;;;;;;;23.12;70.34;99833.06;103999;1284;139423;-81
2022/08/17 01:51:29;;;;;;;16.20;12.20;;;;;;;23.10;70.44;99834.47;104134;1284;95647;-78
2022/08/17 01:54:01;;;;;;;16.20;12.50;;;;;;;23.05;70.72;99835.98;104077;1284;140108;-78
2022/08/17 01:56:31;;;;;;;16.20;12.10;;;;;;;22.97;70.99;99833.84;104121;1284;108714;-77
2022/08/17 01:58:59;;;;;;;17.80;12.60;;;;;;;22.92;71.13;99829.92;104225;1283;99296;-78
2022/08/17 02:01:31;;;;;;;15.40;12.40;;;;;;;22.92;71.01;99829.74;104013;1284;139140;-80
2022/08/17 02:03:59;;;;;;;14.00;11.60;;;;;;;22.96;70.95;99828.11;103950;1284;95170;-78
2022/08/17 02:06:31;;;;;;;16.60;12.40;;;;;;;23.01;70.55;99828.44;104013;1282;140025;-78
2022/08/17 02:09:20;;;;;;;15.20;12.40;;;;;;;23.04;70.39;99832.63;104045;1284;110759;-79
2022/08/17 02:11:57;;;;;;;16.30;12.50;;;;;;;23.05;70.24;99835.45;104068;1284;139086;-78
2022/08/17 02:14:26;;;;;;;15.30;12.10;;;;;;;23.01;70.53;99834.89;104100;1284;108871;-82
2022/08/17 02:16:54;;;;;;;14.60;12.60;;;;;;;23.02;70.36;99834.44;104135;1283;95613;-78
2022/08/17 02:19:22;;;;;;;15.30;12.40;;;;;;;22.98;70.38;99836.06;104006;1284;140673;-79
2022/08/17 02:21:54;;;;;;;16.90;12.60;;;;;;;22.96;70.37;99836.80;104731;1284;110312;-80
2022/08/17 02:24:26;;;;;;;15.50;12.50;;;;;;;22.87;70.90;99838.30;104287;1284;140546;-78
2022/08/17 02:27:14;;;;;;;15.60;12.90;;;;;;;22.88;70.79;99843.62;104277;1284;108499;-79
2022/08/17 02:29:42;;;;;;;16.70;13.10;;;;;;;22.90;70.69;99844.44;104069;1283;145365;-79
2022/08/17 02:32:29;;;;;;;15.80;13.20;;;;;;;22.83;70.82;99840.79;104145;1284;95662;-79
2022/08/17 02:34:57;;;;;;;15.30;12.30;;;;;;;22.68;71.19;99843.19;104123;1284;110472;-78
2022/08/17 02:37:27;;;;;;;14.60;12.10;;;;;;;22.66;71.62;99845.89;103991;1284;140070;-78
2022/08/17 02:39:57;;;;;;;15.00;12.40;;;;;;;22.74;71.46;99843.78;104110;1284;109384;-80
2022/08/17 02:42:32;;;;;;;15.40;12.40;;;;;;;22.78;71.32;99840.13;103962;1284;140136;-78
2022/08/17 02:45:04;;;;;;;15.00;12.60;;;;;;;22.79;71.21;99840.97;104135;1284;95788;-79
2022/08/17 02:47:32;;;;;;;16.50;12.10;;;;;;;22.77;71.63;99845.70;104199;1284;141533;-80
2022/08/17 02:50:00;;;;;;;14.90;11.60;;;;;;;22.80;71.52;99849.20;104176;1284;98439;-80
2022/08/17 02:52:34;;;;;;;15.30;12.20;;;;;;;22.81;71.60;99845.55;104176;1284;109522;-80
2022/08/17 02:55:19;;;;;;;15.50;11.60;;;;;;;22.82;71.57;99847.77;104277;1284;141091;-79
2022/08/17 02:57:48;;;;;;;14.90;11.40;;;;;;;22.85;71.76;99850.60;104432;1284;95189;-79
2022/08/17 03:00:24;;;;;;;13.80;11.10;;;;;;;22.86;71.96;99849.58;104005;1284;140457;-80
2022/08/17 03:02:52;;;;;;;14.70;11.30;;;;;;;22.91;71.93;99847.41;104124;1284;98040;-78
2022/08/17 03:05:21;;;;;;;17.30;12.00;;;;;;;22.94;71.66;99845.47;104124;1284;110261;-79
2022/08/17 03:07:51;;;;;;;15.30;11.20;;;;;;;22.94;71.85;99842.74;104096;1284;138861;-78
2022/08/17 03:10:20;;;;;;;15.90;11.30;;;;;;;22.92;71.90;99842.07;104192;1284;95149;-78
2022/08/17 03:12:49;;;;;;;14.70;11.40;;;;;;;22.91;71.89;99841.37;104105;1284;140931;-78
2022/08/17 03:15:27;;;;;;;15.10;11.80;;;;;;;22.93;71.71;99841.98;104198;1284;98683;-79
2022/08/17 03:17:56;;;;;;;14.10;10.80;;;;;;;22.91;71.80;99844.30;104132;1284;139839;-78
2022/08/17 03:20:26;;;;;;;14.00;11.20;;;;;;;22.85;71.95;99844.11;104171;1283;95275;-78
2022/08/17 03:22:56;;;;;;;15.80;11.40;;;;;;;22.77;72.27;99853.52;104254;1284;95737;-78
2022/08/17 03:25:34;;;;;;;15.60;11.90;;;;;;;22.69;72.41;99855.61;104231;1284;138996;-79
2022/08/17 03:28:04;;;;;;;15.00;11.50;;;;;;;22.67;72.49;99857.02;104425;1284;100282;-78
2022/08/17 03:30:34;;;;;;;15.20;11.30;;;;;;;22.66;72.37;99859.11;104243;1284;141158;-81
2022/08/17 03:33:04;;;;;;;14.10;10.80;;;;;;;22.60;72.73;99858.20;104339;1284;95787;-80
2022/08/17 03:35:35;;;;;;;15.50;11.60;;;;;;;22.58;72.78;99859.42;104817;1284;139439;-78
2022/08/17 03:38:03;;;;;;;15.90;12.20;;;;;;;22.56;72.78;99865.71;104664;1284;109236;-78
2022/08/17 03:40:31;;;;;;;13.40;11.00;;;;;;;22.57;72.83;99866.38;104500;1284;100003;-78
2022/08/17 03:43:21;;;;;;;14.60;10.80;;;;;;;22.63;72.58;99872.54;104237;1284;139907;-77
2022/08/17 03:57:17;;;;;;;15.00;11.60;;;;;;;22.65;72.27;99878.75;104280;1284;108250;-79
2022/08/17 03:59:46;;;;;;;15.60;10.90;;;;;;;22.51;72.79;99878.67;104149;1284;140402;-79
2022/08/17 04:02:24;;;;;;;15.40;10.50;;;;;;;22.43;73.08;99882.98;104373;1283;95862;-78
2022/08/17 04:04:53;;;;;;;13.60;10.00;;;;;;;22.41;73.35;99885.84;104400;1284;110582;-80
2022/08/17 04:07:23;;;;;;;15.00;10.40;;;;;;;22.43;73.57;99888.21;104310;1284;139404;-78
2022/08/17 04:09:51;;;;;;;14.00;10.90;;;;;;;22.53;73.28;99889.49;104286;1283;109843;-80
2022/08/17 04:12:22;;;;;;;16.10;10.40;;;;;;;22.58;73.11;99892.02;104372;1284;139856;-78
2022/08/17 04:14:50;;;;;;;13.60;9.80;;;;;;;22.53;73.15;99891.29;104632;1284;95872;-79
2022/08/17 04:17:26;;;;;;;11.90;9.30;;;;;;;22.61;72.96;99895.91;104480;1283;110286;-79
2022/08/17 04:19:54;;;;;;;13.90;10.00;;;;;;;22.61;73.05;99897.67;104787;1284;141900;-81
2022/08/17 04:22:23;;;;;;;14.00;10.20;;;;;;;22.53;73.04;99897.30;104293;1284;108593;-79
2022/08/17 04:25:26;;;;;;;14.00;10.00;;;;;;;22.50;73.17;99899.50;104095;1282;141024;-80
2022/08/17 04:27:54;;;;;;;14.30;10.00;;;;;;;22.59;73.03;99897.94;104411;1284;95237;-78
2022/08/17 04:30:24;;;;;;;14.00;9.80;;;;;;;22.66;72.83;99897.29;104086;1282;143016;-77
2022/08/17 04:32:58;;;;;;;13.10;10.00;;;;;;;22.73;72.85;99892.37;104328;1284;99866;-79
2022/08/17 04:35:45;;;;;;;13.10;9.80;;;;;;;22.74;72.79;99893.71;104204;1283;139617;-80
2022/08/17 04:38:20;;;;;;;15.40;10.30;;;;;;;22.79;72.62;99894.02;104095;1284;95252;-81
2022/08/17 04:43:41;;;;;;;14.40;10.30;;;;;;;22.89;72.28;99890.98;104188;1284;140188;-79
2022/08/17 04:46:13;;;;;;;13.60;9.60;;;;;;;22.88;72.27;99890.91;104320;1283;99106;-81
2022/08/17 04:48:44;;;;;;;13.70;9.80;;;;;;;22.84;72.29;99888.73;104200;1284;140672;-80
2022/08/17 04:51:17;;;;;;;12.10;9.40;;;;;;;22.84;72.29;99893.19;104244;1284;95197;-80
2022/08/17 04:53:47;;;;;;;13.00;9.40;;;;;;;22.94;72.14;99893.42;104180;1284;144097;-81
2022/08/17 04:56:24;;;;;;;13.20;9.90;;;;;;;23.03;71.88;99889.37;104362;1284;109283;-78
2022/08/17 04:59:04;;;;;;;12.90;9.00;;;;;;;23.10;71.63;99891.22;104319;1284;99551;-79
2022/08/17 05:01:35;;;;;;;11.90;8.80;;;;;;;23.21;71.58;99889.35;104039;1284;143236;-78
2022/08/17 05:04:06;;;;;;;13.60;9.70;;;;;;;23.32;71.04;99891.61;104225;1284;95985;-79
2022/08/17 05:06:54;;;;;;;12.40;9.80;;;;;;;23.40;70.54;99889.34;104171;1284;141407;-78
2022/08/17 05:09:22;;;;;;;12.00;8.70;;;;;;;23.47;70.36;99893.06;104220;1283;110528;-78
2022/08/17 05:11:51;;;;;;;12.50;8.90;;;;;;;23.52;70.54;99891.28;104034;1284;140836;-80
2022/08/17 05:14:22;;;;;;;11.90;9.00;;;;;;;23.46;70.30;99892.23;104161;1284;107815;-79
2022/08/17 05:17:01;;;;;;;12.00;8.60;;;;;;;23.34;70.27;99893.40;104185;1284;95281;-77
2022/08/17 05:19:37;;;;;;;12.80;9.00;;;;;;;23.21;70.04;99887.55;103947;1284;139186;-78
2022/08/17 05:22:05;;;;;;;11.30;8.30;;;;;;;23.19;70.53;99889.87;103492;1284;108971;-78
2022/08/17 05:24:34;;;;;;;11.50;8.50;;;;;;;23.30;70.47;99893.49;104135;1283;139333;-78
2022/08/17 05:27:10;;;;;;;13.70;9.00;;;;;;;23.40;70.40;99894.26;104155;1284;109379;-77
2022/08/17 05:29:45;;;;;;;12.60;9.50;;;;;;;23.36;69.85;99898.02;103947;1284;140347;-80
2022/08/17 05:32:13;;;;;;;12.60;9.50;;;;;;;23.27;69.83;99900.27;104202;1284;96550;-78
2022/08/17 05:35:02;;;;;;;12.60;9.40;;;;;;;23.20;70.04;99906.81;104154;1284;108569;-79
2022/08/17 05:37:30;;;;;;;13.10;9.10;;;;;;;23.24;70.10;99904.70;104020;1283;140859;-79
2022/08/17 05:39:58;;;;;;;12.70;9.60;;;;;;;23.26;69.99;99911.04;104222;1284;108199;-78
2022/08/17 05:42:26;;;;;;;15.30;9.50;;;;;;;23.34;70.17;99909.37;104154;1282;140372;-78
2022/08/17 05:44:56;;;;;;;12.30;9.20;;;;;;;23.43;70.09;99909.33;104179;1283;95148;-78
2022/08/17 05:47:26;;;;;;;12.90;8.50;;;;;;;23.52;69.93;99908.70;104144;1284;109847;-79
2022/08/17 05:49:54;;;;;;;14.00;8.80;;;;;;;23.60;69.41;99909.83;104017;1284;139418;-78
2022/08/17 05:52:41;;;;;;;12.50;9.10;;;;;;;23.68;68.92;99914.23;104517;1282;108557;-78
2022/08/17 05:55:16;;;;;;;11.00;8.50;;;;;;;23.74;68.94;99912.98;104087;1284;139174;-78
2022/08/17 05:57:52;;;;;;;15.20;9.00;;;;;;;23.65;69.09;99911.55;104155;1284;95802;-79
2022/08/17 06:00:35;;;;;;;12.00;8.40;;;;;;;23.60;69.39;99911.64;104026;1284;138944;-78
2022/08/17 06:03:40;;;;;;;13.90;9.10;;;;;;;23.61;69.27;99915.93;104164;1284;99959;-79
2022/08/17 06:06:36;;;;;;;13.40;8.80;;;;;;;23.69;69.19;99912.52;104058;1284;139418;-80
2022/08/17 06:09:20;;;;;;;11.40;8.10;;;;;;;23.76;69.44;99912.63;104185;1284;95206;-80
2022/08/17 06:12:16;;;;;;;12.50;7.50;;;;;;;23.80;69.52;99912.77;104146;1284;140544;-80
2022/08/17 06:15:06;;;;;;;12.50;8.50;;;;;;;23.88;69.37;99919.18;104196;1284;109430;-79
2022/08/17 06:17:36;;;;;;;13.50;8.30;;;;;;;23.94;69.13;99921.56;104178;1284;140229;-80
2022/08/17 06:20:10;;;;;;;20.40;15.40;;;;;;;24.01;68.70;99922.50;105002;1284;109884;-79
2022/08/17 06:22:50;;;;;;;13.50;9.30;;;;;;;24.01;68.04;99926.83;104488;1282;95158;-78
2022/08/17 06:25:33;;;;;;;12.90;9.30;;;;;;;24.00;67.91;99925.16;104130;1284;139697;-79
2022/08/17 06:28:09;;;;;;;12.40;8.80;;;;;;;24.08;68.40;99929.36;104168;1282;107804;-79
2022/08/17 06:30:57;;;;;;;12.50;8.60;;;;;;;24.16;68.11;99929.70;104048;1282;141101;-82
2022/08/17 06:33:32;;;;;;;12.20;8.60;;;;;;;24.33;67.66;99930.73;104387;1283;109372;-78
2022/08/17 06:36:23;;;;;;;13.80;8.10;;;;;;;24.45;67.39;99929.26;104472;1284;138955;-80
2022/08/17 06:38:52;;;;;;;13.40;9.10;;;;;;;24.51;66.87;99929.44;104596;1284;95155;-78
2022/08/17 06:41:36;;;;;;;11.70;7.70;;;;;;;24.53;66.21;99927.20;104644;1284;110226;-79
2022/08/17 06:44:26;;;;;;;10.90;7.70;;;;;;;24.61;66.27;99928.34;105016;1283;99874;-79
2022/08/17 06:47:20;;;;;;;12.10;7.80;;;;;;;24.74;65.99;99927.33;104689;1283;109201;-77
2022/08/17 06:50:29;;;;;;;11.10;8.20;;;;;;;24.83;66.31;99927.05;104541;1284;139531;-79
2022/08/17 06:53:03;;;;;;;13.70;8.60;;;;;;;24.96;66.27;99924.59;104328;1283;95910;-81
2022/08/17 06:55:53;;;;;;;13.30;9.40;;;;;;;25.06;65.81;99927.27;104358;1283;140675;-79
2022/08/17 06:58:23;;;;;;;16.00;10.90;;;;;;;25.07;65.72;99923.52;104684;1282;98596;-79
2022/08/17 07:01:02;;;;;;;12.50;9.40;;;;;;;25.14;65.25;99924.09;104401;1284;139203;-78
2022/08/17 07:03:39;;;;;;;13.40;9.10;;;;;;;25.15;65.11;99931.30;104419;1284;95799;-81
2022/08/17 07:06:13;;;;;;;12.70;8.00;;;;;;;25.15;64.68;99929.43;104351;1284;139821;-78
2022/08/17 07:08:48;;;;;;;12.70;7.90;;;;;;;25.26;64.39;99929.69;104334;1284;110228;-80
2022/08/17 07:11:31;;;;;;;12.90;8.40;;;;;;;25.32;63.93;99933.71;104101;1284;99040;-79
2022/08/17 07:14:38;;;;;;;13.40;8.20;;;;;;;25.45;64.23;99934.06;104215;1284;109472;-79
2022/08/17 07:17:12;;;;;;;11.80;8.30;;;;;;;25.46;64.00;99937.08;104119;1284;95270;-81
2022/08/17 07:19:44;;;;;;;12.80;8.20;;;;;;;25.45;63.83;99936.98;103970;1284;139468;-83
2022/08/17 07:22:37;;;;;;;11.70;8.10;;;;;;;25.51;63.29;99937.71;104138;1283;110236;-79
2022/08/17 07:25:27;;;;;;;13.70;9.10;;;;;;;25.47;63.20;99938.42;103970;1283;139327;-81
2022/08/17 07:28:01;;;;;;;11.60;8.20;;;;;;;25.54;64.22;99934.09;104130;1284;109827;-80
2022/08/17 07:30:40;;;;;;;13.40;8.20;;;;;;;25.61;63.98;99936.40;104206;1284;138987;-79
2022/08/17 07:33:19;;;;;;;14.20;8.10;;;;;;;25.70;63.51;99936.58;104577;1284;95786;-79
2022/08/17 07:35:48;;;;;;;13.10;8.20;;;;;;;25.83;63.77;99942.45;104154;1284;139108;-79
2022/08/17 07:38:23;;;;;;;13.70;8.70;;;;;;;25.91;63.53;99943.62;104077;1284;100142;-78
2022/08/17 07:40:58;;;;;;;13.90;8.50;;;;;;;26.08;63.17;99942.38;104337;1284;109443;-78
2022/08/17 07:43:34;;;;;;;11.50;7.60;;;;;;;26.12;62.27;99941.58;104072;1284;139723;-78
2022/08/17 07:49:01;;;;;;;10.90;8.40;;;;;;;26.16;62.49;99929.71;104089;1284;138462;-82
2022/08/17 07:51:35;;;;;;;14.40;8.00;;;;;;;26.06;61.30;99933.09;104123;1282;99890;-79
2022/08/17 07:54:17;;;;;;;11.90;8.00;;;;;;;25.93;61.85;99934.16;104217;1283;140338;-79
2022/08/17 07:57:03;;;;;;;13.30;8.30;;;;;;;26.06;62.92;99928.97;104243;1283;95891;-79
2022/08/17 07:59:37;;;;;;;16.40;9.50;;;;;;;26.24;61.73;99925.88;104169;1284;95531;-78
2022/08/17 08:02:24;;;;;;;15.10;8.70;;;;;;;26.38;61.28;99929.03;104388;1284;107778;-84
2022/08/17 08:05:11;;;;;;;12.70;7.50;;;;;;;26.42;59.77;99931.33;104283;1284;97607;-81
2022/08/17 08:07:53;;;;;;;10.80;7.50;;;;;;;26.49;60.03;99930.23;104232;1284;140128;-81
2022/08/17 08:10:40;;;;;;;11.90;8.20;;;;;;;26.48;60.10;99930.53;104272;1284;95188;-80
2022/08/17 08:13:23;;;;;;;17.30;11.90;;;;;;;26.56;60.22;99932.84;104338;1283;138789;-80
2022/08/17 08:15:54;;;;;;;12.20;8.00;;;;;;;26.67;60.04;99931.23;104298;1283;110909;-81
2022/08/17 08:18:44;;;;;;;10.60;7.30;;;;;;;26.64;59.06;99928.36;104302;1284;139342;-82
2022/08/17 08:21:50;;;;;;;12.20;7.80;;;;;;;26.67;59.97;99928.09;104492;1284;109388;-79
2022/08/17 08:24:36;;;;;;;12.80;7.60;;;;;;;26.85;59.30;99929.05;104155;1284;138535;-81
2022/08/17 08:27:34;;;;;;;11.50;7.50;;;;;;;26.89;59.11;99928.65;104381;1284;95477;-79
2022/08/17 08:30:17;;;;;;;11.90;7.20;;;;;;;27.14;58.96;99931.95;104260;1283;138585;-80
2022/08/17 08:33:13;;;;;;;12.20;7.30;;;;;;;27.37;58.36;99935.14;104344;1282;99927;-84
2022/08/17 08:35:47;;;;;;;12.00;7.70;;;;;;;27.52;57.45;99934.56;103994;1282;139547;-85
2022/08/17 08:38:47;;;;;;;12.50;7.20;;;;;;;27.67;57.23;99931.35;104304;1282;95236;-81
2022/08/17 08:41:28;;;;;;;12.40;7.40;;;;;;;27.92;56.13;99933.38;104216;1282;95256;-81
2022/08/17 08:44:15;;;;;;;12.10;7.80;;;;;;;28.03;55.89;99937.59;104253;1282;138752;-81
2022/08/17 08:46:59;;;;;;;12.70;7.30;;;;;;;27.94;55.59;99936.11;104381;1282;100242;-80
2022/08/17 08:50:02;;;;;;;14.50;7.40;;;;;;;27.99;57.02;99936.88;104094;1282;140678;-82
2022/08/17 08:53:07;;;;;;;13.00;7.10;;;;;;;28.14;55.49;99930.00;104240;1282;95859;-81
2022/08/17 08:55:36;;;;;;;11.10;7.20;;;;;;;28.37;55.50;99931.95;103798;1284;139773;-82
2022/08/17 08:58:16;;;;;;;11.10;7.10;;;;;;;28.37;55.17;99930.08;104148;1281;110357;-80
2022/08/17 09:01:15;;;;;;;10.60;7.20;;;;;;;28.23;54.63;99927.46;103976;1282;140325;-82
2022/08/17 09:04:01;;;;;;;11.30;7.50;;;;;;;28.24;54.59;99931.44;104135;1283;107812;-80
2022/08/17 09:06:58;;;;;;;12.40;7.50;;;;;;;28.38;54.73;99935.95;104124;1282;138802;-82
2022/08/17 09:09:41;;;;;;;13.50;10.30;;;;;;;28.51;54.35;99936.02;104043;1282;95159;-79
2022/08/17 09:12:24;;;;;;;12.60;6.90;;;;;;;28.62;53.39;99934.83;104322;1282;140167;-82
2022/08/17 09:15:30;;;;;;;10.10;6.50;;;;;;;28.70;52.88;99934.88;104364;1282;99887;-79
2022/08/17 09:18:18;;;;;;;10.20;6.50;;;;;;;28.79;52.02;99938.66;104031;1284;138493;-80
2022/08/17 09:21:36;;;;;;;10.80;6.30;;;;;;;28.92;51.02;99940.79;104183;1282;95677;-82
2022/08/17 09:24:28;;;;;;;9.50;5.50;;;;;;;29.07;50.63;99940.48;104268;1283;139635;-84
2022/08/17 09:26:59;;;;;;;9.60;6.00;;;;;;;29.40;51.00;99947.38;104286;1284;110112;-81
2022/08/17 09:29:35;;;;;;;11.50;7.10;;;;;;;29.98;51.14;99940.75;103949;1284;99792;-86
2022/08/17 09:32:23;;;;;;;10.20;6.00;;;;;;;31.03;47.40;99940.77;103926;1284;109266;-81
2022/08/17 09:35:00;;;;;;;10.00;5.90;;;;;;;32.18;43.93;99937.95;104025;1284;95276;-79
2022/08/17 09:37:52;;;;;;;10.20;5.80;;;;;;;31.82;44.72;99941.11;103898;1284;139818;-79
2022/08/17 09:40:24;;;;;;;8.90;5.20;;;;;;;31.38;45.76;99944.38;104065;1284;110255;-79
2022/08/17 09:43:00;;;;;;;9.10;5.70;;;;;;;31.40;45.77;99943.73;104277;1284;139468;-78
2022/08/17 09:45:50;;;;;;;9.10;5.10;;;;;;;32.56;45.46;99942.42;104149;1284;108472;-79
2022/08/17 09:48:49;;;;;;;9.60;5.40;;;;;;;34.10;41.17;99945.69;104135;1284;138382;-82
2022/08/17 09:51:29;;;;;;;9.10;5.20;;;;;;;34.17;40.68;99943.84;104339;1284;95808;-79
2022/08/17 09:53:58;;;;;;;8.90;5.40;;;;;;;34.16;40.75;99945.68;104185;1284;138837;-80
2022/08/17 09:57:04;;;;;;;8.90;4.90;;;;;;;35.20;39.08;99943.30;104029;1284;99875;-81
2022/08/17 10:00:16;;;;;;;10.70;5.00;;;;;;;36.50;37.03;99938.13;103869;1284;140407;-79
2022/08/17 10:02:56;;;;;;;9.50;4.70;;;;;;;36.86;35.27;99943.54;103155;1284;1369037;-79
2022/08/17 10:05:27;;;;;;;8.00;5.10;;;;;;;35.65;36.83;99946.77;103938;1284;95677;-78
2022/08/17 10:08:28;;;;;;;9.30;5.00;;;;;;;34.86;38.10;99950.58;103848;1284;137995;-81
2022/08/17 10:11:10;;;;;;;10.50;5.50;;;;;;;34.04;39.23;99954.77;103964;1284;100387;-78
2022/08/17 10:13:59;;;;;;;9.60;5.50;;;;;;;33.42;39.90;99952.62;103847;1283;140561;-79
2022/08/17 10:16:42;;;;;;;8.50;5.40;;;;;;;33.79;39.93;99953.84;104206;1284;95643;-79
2022/08/17 10:19:36;;;;;;;10.20;5.40;;;;;;;35.18;37.51;99951.95;103760;1283;140181;-79
2022/08/17 10:28:28;;;;;;;8.20;4.80;;;;;;;38.83;31.67;99954.84;104324;1284;109461;-81
2022/08/17 10:31:01;;;;;;;8.70;4.60;;;;;;;37.96;32.73;99953.80;103747;1284;138417;-83
2022/08/17 10:33:58;;;;;;;9.30;5.00;;;;;;;36.16;34.08;99949.23;103908;1284;95156;-81
2022/08/17 10:36:41;;;;;;;8.40;5.00;;;;;;;36.02;35.54;99950.54;103811;1285;139613;-82
2022/08/17 10:39:18;;;;;;;7.60;5.10;;;;;;;37.61;33.31;99945.94;104065;1284;99924;-81
2022/08/17 10:41:51;;;;;;;8.30;5.00;;;;;;;38.79;31.98;99950.73;103884;1284;140214;-80
2022/08/17 10:44:43;;;;;;;8.50;5.10;;;;;;;38.50;32.36;99950.80;103873;1284;95667;-81
2022/08/17 10:47:14;;;;;;;9.00;4.90;;;;;;;37.73;33.46;99948.98;104086;1283;96720;-83
2022/08/17 10:49:52;;;;;;;8.00;4.80;;;;;;;37.34;33.32;99948.86;104025;1284;138203;-84
2022/08/17 10:52:26;;;;;;;8.70;4.80;;;;;;;36.98;33.53;99946.33;104118;1284;98409;-82
2022/08/17 10:54:57;;;;;;;10.20;5.80;;;;;;;37.34;31.99;99947.44;103780;1284;139989;-81
2022/08/17 10:57:25;;;;;;;9.40;5.50;;;;;;;37.85;32.64;99949.25;103876;1284;95263;-80
2022/08/17 10:59:58;;;;;;;9.00;5.20;;;;;;;37.85;32.72;99955.87;103778;1284;139152;-80
2022/08/17 11:02:39;;;;;;;8.60;5.20;;;;;;;36.87;33.77;99951.89;103938;1284;110727;-82
2022/08/17 11:05:16;;;;;;;9.60;5.30;;;;;;;36.49;34.66;99952.14;103864;1284;100556;-82
2022/08/17 11:08:00;;;;;;;8.20;5.30;;;;;;;36.17;35.29;99954.95;103810;1284;140775;-82
2022/08/17 11:10:41;;;;;;;10.40;5.40;;;;;;;35.53;34.71;99950.84;104101;1284;95638;-80
2022/08/17 11:13:34;;;;;;;9.40;5.60;;;;;;;34.63;35.49;99948.27;103983;1284;138607;-79
2022/08/17 11:16:20;;;;;;;8.60;5.50;;;;;;;34.12;36.93;99947.19;103951;1284;110181;-81
2022/08/17 11:19:09;;;;;;;9.70;5.80;;;;;;;33.92;37.61;99946.23;104110;1284;138479;-80
2022/08/17 11:22:14;;;;;;;8.60;5.40;;;;;;;33.50;39.45;99950.95;104095;1284;109483;-80
2022/08/17 11:24:51;;;;;;;9.50;5.30;;;;;;;33.08;39.65;99947.06;103920;1282;139867;-79
2022/08/17 11:27:29;;;;;;;10.20;5.90;;;;;;;32.40;39.60;99948.98;104119;1282;95829;-81
2022/08/17 11:30:07;;;;;;;8.20;5.40;;;;;;;31.81;40.15;99949.78;104009;1282;140185;-78
2022/08/17 11:32:38;;;;;;;10.50;6.80;;;;;;;31.49;42.08;99950.48;104233;1282;98508;-78
2022/08/17 11:35:19;;;;;;;8.50;5.60;;;;;;;31.37;41.57;99951.05;104038;1282;109729;-78
2022/08/17 11:38:25;;;;;;;10.00;5.90;;;;;;;31.11;41.82;99951.64;103958;1282;138176;-78
2022/08/17 11:41:44;;;;;;;8.90;5.10;;;;;;;31.10;41.33;99946.59;104134;1282;95456;-82
2022/08/17 11:44:19;;;;;;;7.90;5.30;;;;;;;30.96;40.99;99948.09;103631;1284;109042;-79
2022/08/17 11:52:55;;;;;;;10.20;6.30;;;;;;;30.37;43.49;99950.27;104121;1284;95464;-81
2022/08/17 11:55:33;;;;;;;9.90;6.50;;;;;;;30.42;44.07;99953.03;104033;1282;138632;-80
2022/08/17 11:58:25;;;;;;;9.90;6.50;;;;;;;30.23;43.91;99953.16;104097;1282;110355;-80
2022/08/17 12:00:55;;;;;;;9.90;5.90;;;;;;;30.11;44.07;99942.81;103970;1282;140203;-79
2022/08/17 12:03:42;;;;;;;10.00;5.80;;;;;;;30.18;44.12;99943.06;104149;1282;109750;-79
2022/08/17 12:06:43;;;;;;;16.20;12.20;;;;;;;30.11;44.02;99939.95;104186;1282;139230;-81
2022/08/17 12:09:23;;;;;;;11.10;6.80;;;;;;;29.95;45.70;99943.37;104169;1282;95271;-80
2022/08/17 12:12:08;;;;;;;11.30;6.60;;;;;;;29.90;46.48;99944.95;104086;1282;140944;-80
2022/08/17 12:14:47;;;;;;;10.60;6.40;;;;;;;29.91;45.85;99941.88;104160;1282;100512;-79
2022/08/17 12:17:36;;;;;;;9.40;6.50;;;;;;;29.77;46.87;99941.94;104117;1282;140520;-79
2022/08/17 12:20:23;;;;;;;9.60;6.40;;;;;;;29.63;47.60;99947.04;104265;1282;95708;-79
2022/08/17 12:23:03;;;;;;;10.70;6.70;;;;;;;29.54;48.16;99947.35;104120;1282;95155;-79
2022/08/17 12:26:08;;;;;;;10.50;6.80;;;;;;;29.29;48.02;99949.70;104052;1282;138717;-81
2022/08/17 12:28:43;;;;;;;12.00;6.50;;;;;;;29.24;49.06;99948.45;104099;1282;100126;-79
2022/08/17 12:31:18;;;;;;;11.30;6.70;;;;;;;29.16;48.62;99948.10;104028;1282;140380;-79